createdAt,value
2022-09-21T00:00:14.299Z,10.36
2022-09-21T00:02:41.011Z,10.31
2022-09-21T00:05:08.898Z,10.24
2022-09-21T00:07:35.578Z,10.23
2022-09-21T00:10:02.218Z,10.23
2022-09-21T00:12:31.586Z,10.23
2022-09-21T00:14:58.679Z,10.22
2022-09-21T00:17:25.412Z,10.22
2022-09-21T00:19:52.471Z,10.20
2022-09-21T00:22:19.158Z,10.20
2022-09-21T00:24:46.045Z,10.20
2022-09-21T00:27:12.719Z,10.20
2022-09-21T00:29:40.966Z,10.22
2022-09-21T00:32:07.634Z,10.21
2022-09-21T00:34:34.248Z,10.16
2022-09-21T00:37:00.856Z,10.07
2022-09-21T00:39:27.505Z,10.01
2022-09-21T00:41:54.153Z,9.99
2022-09-21T00:44:29.145Z,10.00
2022-09-21T00:47:01.559Z,10.00
2022-09-21T00:49:29.138Z,9.99
2022-09-21T00:51:58.940Z,9.97
2022-09-21T00:54:29.994Z,9.96
2022-09-21T00:57:01.275Z,9.97
2022-09-21T00:59:30.305Z,9.95
2022-09-21T01:01:59.571Z,9.92
2022-09-21T01:04:28.435Z,9.81
2022-09-21T01:06:56.672Z,9.72
2022-09-21T01:09:24.049Z,9.60
2022-09-21T01:12:04.570Z,9.48
2022-09-21T01:15:05.692Z,9.39
2022-09-21T01:17:43.723Z,9.33
2022-09-21T01:20:41.965Z,9.33
2022-09-21T01:23:24.682Z,9.25
2022-09-21T01:26:05.616Z,9.21
2022-09-21T01:29:12.632Z,9.18
2022-09-21T01:31:45.547Z,9.13
2022-09-21T01:34:17.327Z,9.12
2022-09-21T01:36:47.464Z,9.10
2022-09-21T01:39:16.920Z,9.05
2022-09-21T01:41:44.755Z,8.97
2022-09-21T01:44:15.684Z,8.91
2022-09-21T01:46:46.904Z,8.86
2022-09-21T01:49:17.943Z,8.77
2022-09-21T01:51:50.406Z,8.65
2022-09-21T01:54:21.787Z,8.55
2022-09-21T01:56:54.740Z,8.46
2022-09-21T01:59:28.205Z,8.35
2022-09-21T02:02:00.426Z,8.29
2022-09-21T02:04:27.612Z,8.25
2022-09-21T02:06:55.148Z,8.25
2022-09-21T02:09:23.979Z,8.28
2022-09-21T02:11:50.553Z,8.28
2022-09-21T02:14:22.296Z,8.26
2022-09-21T02:16:55.468Z,8.19
2022-09-21T02:19:35.924Z,8.18
2022-09-21T02:22:07.379Z,8.18
2022-09-21T02:24:41.387Z,8.20
2022-09-21T02:27:19.862Z,8.23
2022-09-21T02:29:51.910Z,8.24
2022-09-21T02:32:33.971Z,8.25
2022-09-21T02:35:09.379Z,8.20
2022-09-21T02:37:44.290Z,8.16
2022-09-21T02:40:22.348Z,8.14
2022-09-21T02:42:56.587Z,8.14
2022-09-21T02:45:27.105Z,8.13
2022-09-21T02:47:59.601Z,8.13
2022-09-21T02:50:35.373Z,8.09
2022-09-21T02:53:04.977Z,8.04
2022-09-21T02:55:33.246Z,8.00
2022-09-21T02:58:05.383Z,8.01
2022-09-21T03:00:33.273Z,8.04
2022-09-21T03:02:59.878Z,8.02
2022-09-21T03:05:29.468Z,7.98
2022-09-21T03:07:56.067Z,7.97
2022-09-21T03:10:22.662Z,7.97
2022-09-21T03:12:49.230Z,7.95
2022-09-21T03:15:18.253Z,7.95
2022-09-21T03:17:44.964Z,7.95
2022-09-21T03:20:11.681Z,7.93
2022-09-21T03:22:39.583Z,7.93
2022-09-21T03:25:09.274Z,7.92
2022-09-21T03:27:35.889Z,7.90
2022-09-21T03:30:02.873Z,7.87
2022-09-21T03:32:29.626Z,7.80
2022-09-21T03:34:56.360Z,7.72
2022-09-21T03:37:22.940Z,7.66
2022-09-21T03:39:50.843Z,7.61
2022-09-21T03:42:17.487Z,7.54
2022-09-21T03:44:44.456Z,7.50
2022-09-21T03:47:11.147Z,7.48
2022-09-21T03:49:38.768Z,7.41
2022-09-21T03:52:05.364Z,7.37
2022-09-21T03:54:32.055Z,7.32
2022-09-21T03:57:00.250Z,7.29
2022-09-21T03:59:26.902Z,7.23
2022-09-21T04:01:53.683Z,7.18
2022-09-21T04:04:20.727Z,7.11
2022-09-21T04:06:47.370Z,7.04
2022-09-21T04:09:13.994Z,6.96
2022-09-21T04:11:40.645Z,6.89
2022-09-21T04:14:08.607Z,6.84
2022-09-21T04:16:35.333Z,6.79
2022-09-21T04:19:01.964Z,6.74
2022-09-21T04:21:29.394Z,6.75
2022-09-21T04:23:56.456Z,6.75
2022-09-21T04:26:26.707Z,6.77
2022-09-21T04:28:55.147Z,6.81
2022-09-21T04:31:23.945Z,6.85
2022-09-21T04:33:52.121Z,6.90
2022-09-21T04:36:19.951Z,6.95
2022-09-21T04:38:47.350Z,6.99
2022-09-21T04:41:15.206Z,7.03
2022-09-21T04:43:43.381Z,7.06
2022-09-21T04:46:12.639Z,7.04
2022-09-21T04:48:42.097Z,7.01
2022-09-21T04:51:10.543Z,6.98
2022-09-21T04:53:39.995Z,6.96
2022-09-21T04:56:07.937Z,6.94
2022-09-21T04:58:34.813Z,6.94
2022-09-21T05:01:02.252Z,6.94
2022-09-21T05:03:28.938Z,6.97
2022-09-21T05:05:58.032Z,7.01
2022-09-21T05:08:44.808Z,7.04
2022-09-21T05:11:13.628Z,7.05
2022-09-21T05:13:40.645Z,7.08
2022-09-21T05:16:07.481Z,7.10
2022-09-21T05:18:34.343Z,7.09
2022-09-21T05:21:03.843Z,7.02
2022-09-21T05:23:31.003Z,6.94
2022-09-21T05:25:58.252Z,6.87
2022-09-21T05:28:26.372Z,6.86
2022-09-21T05:31:16.687Z,6.88
2022-09-21T05:33:51.368Z,6.89
2022-09-21T05:36:36.588Z,6.93
2022-09-21T05:39:03.860Z,6.97
2022-09-21T05:41:31.113Z,7.03
2022-09-21T05:43:58.252Z,7.03
2022-09-21T05:46:37.559Z,7.04
2022-09-21T05:49:12.464Z,7.01
2022-09-21T05:51:50.131Z,7.03
2022-09-21T05:54:26.481Z,7.05
2022-09-21T05:57:01.303Z,7.07
2022-09-21T05:59:48.465Z,7.16
2022-09-21T06:02:26.172Z,7.21
2022-09-21T06:04:56.325Z,7.23
2022-09-21T06:07:24.621Z,7.28
2022-09-21T06:09:51.316Z,7.29
2022-09-21T06:12:18.156Z,7.33
2022-09-21T06:14:44.839Z,7.38
2022-09-21T06:17:11.437Z,7.44
2022-09-21T06:19:38.141Z,7.50
2022-09-21T06:22:05.035Z,7.57
2022-09-21T06:24:33.003Z,7.65
2022-09-21T06:26:59.622Z,7.75
2022-09-21T06:29:26.270Z,7.90
2022-09-21T06:31:53.028Z,8.04
2022-09-21T06:34:19.825Z,8.17
2022-09-21T06:36:46.455Z,8.31
2022-09-21T06:39:13.708Z,8.47
2022-09-21T06:41:41.709Z,8.65
2022-09-21T06:44:10.199Z,8.78
2022-09-21T06:46:37.132Z,8.94
2022-09-21T06:49:03.994Z,9.09
2022-09-21T06:51:30.678Z,9.21
2022-09-21T06:53:58.011Z,9.36
2022-09-21T06:56:25.482Z,9.58
2022-09-21T06:58:57.773Z,9.72
2022-09-21T07:01:24.953Z,9.84
2022-09-21T07:03:52.745Z,10.02
2022-09-21T07:06:20.417Z,10.21
2022-09-21T07:11:33.921Z,10.43
2022-09-21T07:14:02.040Z,10.55
2022-09-21T07:16:28.731Z,10.75
2022-09-21T07:18:55.404Z,10.98
2022-09-21T07:21:22.178Z,11.19
2022-09-21T07:23:49.017Z,11.41
2022-09-21T07:26:16.187Z,11.60
2022-09-21T07:28:43.022Z,11.76
2022-09-21T07:31:14.215Z,11.94
2022-09-21T07:33:41.413Z,12.06
2022-09-21T07:36:12.843Z,12.26
2022-09-21T07:38:42.099Z,12.46
2022-09-21T07:41:10.113Z,12.61
2022-09-21T07:43:39.338Z,12.75
2022-09-21T07:46:06.175Z,12.85
2022-09-21T07:48:34.237Z,12.89
2022-09-21T07:51:04.949Z,12.94
2022-09-21T07:53:32.148Z,13.05
2022-09-21T07:56:02.866Z,13.20
2022-09-21T07:58:48.679Z,13.24
2022-09-21T08:01:15.666Z,13.36
2022-09-21T08:03:43.964Z,13.60
2022-09-21T08:06:10.865Z,13.87
2022-09-21T08:08:37.717Z,14.05
2022-09-21T08:11:05.056Z,14.20
2022-09-21T08:13:32.064Z,14.32
2022-09-21T08:15:59.819Z,14.43
2022-09-21T08:18:27.149Z,14.54
2022-09-21T08:20:56.254Z,14.54
2022-09-21T08:23:23.426Z,14.65
2022-09-21T08:25:51.505Z,14.89
2022-09-21T08:28:18.716Z,15.05
2022-09-21T08:30:45.369Z,15.17
2022-09-21T08:33:12.050Z,15.23
2022-09-21T08:35:38.705Z,15.43
2022-09-21T08:38:06.710Z,15.58
2022-09-21T08:40:34.883Z,15.59
2022-09-21T08:43:07.276Z,15.80
2022-09-21T08:45:37.940Z,15.96
2022-09-21T08:48:11.057Z,16.17
2022-09-21T08:50:42.529Z,16.28
2022-09-21T08:53:16.549Z,16.24
2022-09-21T08:55:43.182Z,16.29
2022-09-21T08:58:23.316Z,16.45
2022-09-21T09:01:02.404Z,16.57
2022-09-21T09:04:04.202Z,16.62
2022-09-21T09:06:42.119Z,16.84
2022-09-21T09:09:49.305Z,17.14
2022-09-21T09:12:34.619Z,17.27
2022-09-21T09:15:14.606Z,17.18
2022-09-21T09:17:53.174Z,17.06
2022-09-21T09:20:24.383Z,17.18
2022-09-21T09:23:00.159Z,17.28
2022-09-21T09:25:36.175Z,17.47
2022-09-21T09:28:21.248Z,17.67
2022-09-21T09:30:56.349Z,17.65
2022-09-21T09:33:27.054Z,17.60
2022-09-21T09:36:00.590Z,17.70
2022-09-21T09:38:32.398Z,17.91
2022-09-21T09:41:16.683Z,17.77
2022-09-21T09:43:53.880Z,17.46
2022-09-21T09:46:31.284Z,17.61
2022-09-21T09:49:15.901Z,17.77
2022-09-21T09:51:45.280Z,17.87
2022-09-21T09:54:15.712Z,18.00
2022-09-21T09:56:44.100Z,18.05
2022-09-21T09:59:17.272Z,18.21
2022-09-21T10:01:50.585Z,18.36
2022-09-21T10:04:18.139Z,18.40
2022-09-21T10:06:46.644Z,18.50
2022-09-21T10:09:23.452Z,18.54
2022-09-21T10:11:52.742Z,18.45
2022-09-21T10:14:25.416Z,18.16
2022-09-21T10:16:54.522Z,17.75
2022-09-21T10:19:25.596Z,17.65
2022-09-21T10:21:57.695Z,17.91
2022-09-21T10:24:26.813Z,17.84
2022-09-21T10:26:56.475Z,17.64
2022-09-21T10:29:40.644Z,17.60
2022-09-21T10:32:21.535Z,17.77
2022-09-21T10:35:16.079Z,17.99
2022-09-21T10:37:45.447Z,18.15
2022-09-21T10:40:24.379Z,18.28
2022-09-21T10:42:55.388Z,18.30
2022-09-21T10:45:25.127Z,18.08
2022-09-21T10:47:55.252Z,18.01
2022-09-21T10:50:27.001Z,18.02
2022-09-21T10:52:58.669Z,18.07
2022-09-21T10:55:28.119Z,18.24
2022-09-21T10:57:57.366Z,18.39
2022-09-21T11:00:37.111Z,18.57
2022-09-21T11:03:31.527Z,18.83
2022-09-21T11:06:04.726Z,18.90
2022-09-21T11:08:36.148Z,18.76
2022-09-21T11:11:25.799Z,18.73
2022-09-21T11:14:01.414Z,18.85
2022-09-21T11:16:34.929Z,19.01
2022-09-21T11:19:11.704Z,19.01
2022-09-21T11:21:44.787Z,18.94
2022-09-21T11:24:21.140Z,18.99
2022-09-21T11:26:54.744Z,19.02
2022-09-21T11:29:29.203Z,19.10
2022-09-21T11:32:19.314Z,19.10
2022-09-21T11:35:18.619Z,19.05
2022-09-21T11:37:54.595Z,18.87
2022-09-21T11:40:36.669Z,18.82
2022-09-21T11:43:19.805Z,18.92
2022-09-21T11:46:01.480Z,18.85
2022-09-21T11:48:44.538Z,18.87
2022-09-21T11:51:38.393Z,18.87
2022-09-21T11:54:40.783Z,18.56
2022-09-21T11:57:19.060Z,18.41
2022-09-21T12:00:07.941Z,18.49
2022-09-21T12:03:06.684Z,18.47
2022-09-21T12:05:38.885Z,18.51
2022-09-21T12:08:38.426Z,18.50
2022-09-21T12:11:14.631Z,18.55
2022-09-21T12:13:50.566Z,18.70
2022-09-21T12:16:25.993Z,18.73
2022-09-21T12:19:04.413Z,18.81
2022-09-21T12:21:35.316Z,18.74
2022-09-21T12:24:12.539Z,18.65
2022-09-21T12:26:42.887Z,18.71
2022-09-21T12:29:16.159Z,18.83
2022-09-21T12:31:48.353Z,18.96
2022-09-21T12:34:20.855Z,18.97
2022-09-21T12:36:58.510Z,18.97
2022-09-21T12:39:29.020Z,18.98
2022-09-21T12:42:01.973Z,19.03
2022-09-21T12:44:35.942Z,18.99
2022-09-21T12:47:12.012Z,18.94
2022-09-21T12:49:43.405Z,18.94
2022-09-21T12:52:18.164Z,18.97
2022-09-21T12:54:52.430Z,18.92
2022-09-21T12:57:53.519Z,18.68
2022-09-21T13:00:20.803Z,18.54
2022-09-21T13:02:54.575Z,18.68
2022-09-21T13:05:34.536Z,18.78
2022-09-21T13:08:10.207Z,18.63
2022-09-21T13:10:51.695Z,18.47
2022-09-21T13:13:33.260Z,18.42
2022-09-21T13:16:01.777Z,18.46
2022-09-21T13:18:36.314Z,18.49
2022-09-21T13:21:18.711Z,18.49
2022-09-21T13:23:54.956Z,18.51
2022-09-21T13:26:33.405Z,18.45
2022-09-21T13:29:21.656Z,18.43
2022-09-21T13:31:58.070Z,18.45
2022-09-21T13:34:28.397Z,18.39
2022-09-21T13:37:25.264Z,18.38
2022-09-21T13:40:38.741Z,18.32
2022-09-21T13:43:46.610Z,18.26
2022-09-21T13:46:48.822Z,18.30
2022-09-21T13:49:21.568Z,18.15
2022-09-21T13:51:57.362Z,18.04
2022-09-21T13:54:28.921Z,17.99
2022-09-21T13:57:18.113Z,18.04
2022-09-21T13:59:49.325Z,18.04
2022-09-21T14:02:31.650Z,18.06
2022-09-21T14:05:05.073Z,17.99
2022-09-21T14:07:33.635Z,17.93
2022-09-21T14:10:06.002Z,17.93
2022-09-21T14:12:38.696Z,17.90
2022-09-21T14:15:30.785Z,17.85
2022-09-21T14:18:20.973Z,17.81
2022-09-21T14:21:10.623Z,17.75
2022-09-21T14:23:38.713Z,17.70
2022-09-21T14:26:32.904Z,17.67
2022-09-21T14:29:08.309Z,17.58
2022-09-21T14:31:39.082Z,17.57
2022-09-21T14:34:12.030Z,17.48
2022-09-21T14:36:43.166Z,17.45
2022-09-21T14:39:19.001Z,17.42
2022-09-21T14:41:52.316Z,17.36
2022-09-21T14:44:21.994Z,17.26
2022-09-21T14:47:00.943Z,17.21
2022-09-21T14:49:40.903Z,17.21
2022-09-21T14:52:31.173Z,17.18
2022-09-21T14:55:11.794Z,17.15
2022-09-21T14:58:10.287Z,17.14
2022-09-21T15:00:39.622Z,17.07
2022-09-21T15:03:39.158Z,17.07
2022-09-21T15:06:38.672Z,17.05
2022-09-21T15:09:45.830Z,16.98
2022-09-21T15:12:17.299Z,16.94
2022-09-21T15:14:48.477Z,16.91
2022-09-21T15:17:24.291Z,16.91
2022-09-21T15:19:51.528Z,16.91
2022-09-21T15:22:20.856Z,16.93
2022-09-21T15:24:52.894Z,16.92
2022-09-21T15:27:23.124Z,16.87
2022-09-21T15:29:58.467Z,16.83
2022-09-21T15:32:35.418Z,16.77
2022-09-21T15:35:04.653Z,16.74
2022-09-21T15:37:36.098Z,16.68
2022-09-21T15:40:05.388Z,16.62
2022-09-21T15:42:35.051Z,16.49
2022-09-21T15:45:14.944Z,16.41
2022-09-21T15:47:44.961Z,16.36
2022-09-21T15:50:13.861Z,16.33
2022-09-21T15:52:46.007Z,16.36
2022-09-21T15:55:21.237Z,16.31
2022-09-21T15:57:50.206Z,16.22
2022-09-21T16:00:27.212Z,16.12
2022-09-21T16:02:58.752Z,16.06
2022-09-21T16:05:25.638Z,16.03
2022-09-21T16:08:05.159Z,16.06
2022-09-21T16:10:38.403Z,16.02
2022-09-21T16:13:30.157Z,16.00
2022-09-21T16:16:03.001Z,15.95
2022-09-21T16:18:35.652Z,15.87
2022-09-21T16:21:09.387Z,15.80
2022-09-21T16:23:39.355Z,15.78
2022-09-21T16:26:06.885Z,15.76
2022-09-21T16:28:39.569Z,15.73
2022-09-21T16:31:28.608Z,15.65
2022-09-21T16:34:01.592Z,15.62
2022-09-21T16:36:43.678Z,15.57
2022-09-21T16:39:15.478Z,15.50
2022-09-21T16:41:48.296Z,15.47
2022-09-21T16:44:20.745Z,15.37
2022-09-21T16:46:54.076Z,15.32
2022-09-21T16:49:25.745Z,15.28
2022-09-21T16:51:55.893Z,15.26
2022-09-21T16:54:25.531Z,15.26
2022-09-21T16:56:54.352Z,15.24
2022-09-21T16:59:23.284Z,15.19
2022-09-21T17:01:56.359Z,15.11
2022-09-21T17:04:29.918Z,15.06
2022-09-21T17:06:58.293Z,15.03
2022-09-21T17:09:29.778Z,14.97
2022-09-21T17:12:00.398Z,14.93
2022-09-21T17:14:28.176Z,14.90
2022-09-21T17:16:58.493Z,14.86
2022-09-21T17:19:27.761Z,14.85
2022-09-21T17:21:54.659Z,14.80
2022-09-21T17:24:45.842Z,14.78
2022-09-21T17:27:09.169Z,14.76
2022-09-21T17:29:39.941Z,14.73
2022-09-21T17:32:11.255Z,14.68
2022-09-21T17:34:37.905Z,14.64
2022-09-21T17:37:04.567Z,14.61
2022-09-21T17:39:31.192Z,14.59
2022-09-21T17:42:02.364Z,14.58
2022-09-21T17:44:47.842Z,14.54
2022-09-21T17:47:23.168Z,14.46
2022-09-21T17:49:50.873Z,14.40
2022-09-21T17:52:38.630Z,14.37
2022-09-21T17:55:08.425Z,14.33
2022-09-21T17:57:49.942Z,14.31
2022-09-21T18:00:20.524Z,14.25
2022-09-21T18:02:49.639Z,14.20
2022-09-21T18:05:22.906Z,14.11
2022-09-21T18:07:50.999Z,14.03
2022-09-21T18:10:18.919Z,13.98
2022-09-21T18:13:19.333Z,13.91
2022-09-21T18:15:56.624Z,13.84
2022-09-21T18:18:43.393Z,13.79
2022-09-21T18:21:16.998Z,13.70
2022-09-21T18:23:54.857Z,13.64
2022-09-21T18:26:23.376Z,13.57
2022-09-21T18:28:57.140Z,13.55
2022-09-21T18:31:36.638Z,13.52
2022-09-21T18:34:18.181Z,13.46
2022-09-21T18:36:52.662Z,13.38
2022-09-21T18:39:32.854Z,13.31
2022-09-21T18:42:13.548Z,13.23
2022-09-21T18:44:49.860Z,13.17
2022-09-21T18:47:22.441Z,13.13
2022-09-21T18:49:59.109Z,13.10
2022-09-21T18:52:36.425Z,13.05
2022-09-21T18:55:17.924Z,13.01
2022-09-21T18:57:45.631Z,12.95
2022-09-21T19:00:15.113Z,12.93
2022-09-21T19:02:59.037Z,12.89
2022-09-21T19:05:33.209Z,12.87
2022-09-21T19:08:09.270Z,12.84
2022-09-21T19:10:38.832Z,12.80
2022-09-21T19:13:32.884Z,12.77
2022-09-21T19:16:11.734Z,12.73
2022-09-21T19:18:47.185Z,12.70
2022-09-21T19:21:26.961Z,12.64
2022-09-21T19:24:05.828Z,12.60
2022-09-21T19:26:42.741Z,12.58
2022-09-21T19:29:30.090Z,12.56
2022-09-21T19:31:57.515Z,12.52
2022-09-21T19:34:24.500Z,12.46
2022-09-21T19:36:52.768Z,12.40
2022-09-21T19:39:20.096Z,12.36
2022-09-21T19:42:02.698Z,12.32
2022-09-21T19:44:45.291Z,12.27
2022-09-21T19:47:19.197Z,12.22
2022-09-21T19:49:50.125Z,12.19
2022-09-21T19:52:22.212Z,12.15
2022-09-21T19:55:07.935Z,12.10
2022-09-21T19:57:54.725Z,12.02
2022-09-21T20:00:24.023Z,11.99
2022-09-21T20:03:02.782Z,11.94
2022-09-21T20:05:38.388Z,11.90
2022-09-21T20:08:16.057Z,11.84
2022-09-21T20:10:58.683Z,11.80
2022-09-21T20:13:36.574Z,11.77
2022-09-21T20:16:23.155Z,11.71
2022-09-21T20:18:58.968Z,11.65
2022-09-21T20:21:31.820Z,11.56
2022-09-21T20:24:02.256Z,11.48
2022-09-21T20:26:30.147Z,11.40
2022-09-21T20:28:58.019Z,11.28
2022-09-21T20:31:26.390Z,11.18
2022-09-21T20:33:53.045Z,11.07
2022-09-21T20:36:19.682Z,10.97
2022-09-21T20:38:46.411Z,10.92
2022-09-21T20:41:18.369Z,10.90
2022-09-21T20:43:45.017Z,10.90
2022-09-21T20:46:11.979Z,10.86
2022-09-21T20:48:38.823Z,10.81
2022-09-21T20:51:06.570Z,10.83
2022-09-21T20:53:34.473Z,10.81
2022-09-21T20:56:02.271Z,10.79
2022-09-21T20:58:30.552Z,10.72
2022-09-21T21:01:05.255Z,10.66
2022-09-21T21:03:32.055Z,10.63
2022-09-21T21:06:08.400Z,10.63
2022-09-21T21:08:35.901Z,10.58
2022-09-21T21:11:02.940Z,10.56
2022-09-21T21:13:32.425Z,10.53
2022-09-21T21:16:00.866Z,10.50
2022-09-21T21:18:27.949Z,10.45
2022-09-21T21:20:54.827Z,10.44
2022-09-21T21:23:21.462Z,10.41
2022-09-21T21:25:49.003Z,10.36
2022-09-21T21:28:15.734Z,10.30
2022-09-21T21:30:44.671Z,10.20
2022-09-21T21:33:11.422Z,10.12
2022-09-21T21:35:38.065Z,10.07
2022-09-21T21:38:04.674Z,10.02
2022-09-21T21:40:31.487Z,9.99
2022-09-21T21:42:58.182Z,9.92
2022-09-21T21:45:24.857Z,9.84
2022-09-21T21:47:54.549Z,9.75
2022-09-21T21:50:21.465Z,9.70
2022-09-21T21:52:48.135Z,9.64
2022-09-21T21:55:15.416Z,9.62
2022-09-21T21:57:42.096Z,9.59
2022-09-21T22:00:10.286Z,9.58
2022-09-21T22:02:37.054Z,9.57
2022-09-21T22:05:06.546Z,9.58
2022-09-21T22:07:33.237Z,9.52
2022-09-21T22:09:59.870Z,9.39
2022-09-21T22:12:26.768Z,9.35
2022-09-21T22:14:53.383Z,9.30
2022-09-21T22:17:20.530Z,9.29
2022-09-21T22:19:47.325Z,9.26
2022-09-21T22:22:15.610Z,9.25
2022-09-21T22:24:42.293Z,9.22
2022-09-21T22:27:08.996Z,9.19
2022-09-21T22:29:36.174Z,9.14
2022-09-21T22:32:03.364Z,9.10
2022-09-21T22:34:30.792Z,9.07
2022-09-21T22:36:58.915Z,9.02
2022-09-21T22:39:28.033Z,9.04
2022-09-21T22:41:54.701Z,9.02
2022-09-21T22:44:21.561Z,8.99
2022-09-21T22:46:48.184Z,8.94
2022-09-21T22:49:14.819Z,8.90
2022-09-21T22:51:41.947Z,8.84
2022-09-21T22:54:08.984Z,8.72
2022-09-21T22:56:37.009Z,8.64
2022-09-21T22:59:05.580Z,8.57
2022-09-21T23:01:34.150Z,8.49
2022-09-21T23:04:02.686Z,8.45
2022-09-21T23:06:33.218Z,8.38
2022-09-21T23:09:02.191Z,8.36
2022-09-21T23:11:30.620Z,8.32
2022-09-21T23:13:59.380Z,8.29
2022-09-21T23:16:27.881Z,8.27
2022-09-21T23:18:55.372Z,8.24
2022-09-21T23:21:24.653Z,8.19
2022-09-21T23:23:54.907Z,8.11
2022-09-21T23:26:24.365Z,8.01
2022-09-21T23:28:51.653Z,7.90
2022-09-21T23:31:22.151Z,7.82
2022-09-21T23:33:50.664Z,7.80
2022-09-21T23:36:19.900Z,7.78
2022-09-21T23:38:47.347Z,7.74
2022-09-21T23:41:15.937Z,7.67
2022-09-21T23:43:43.973Z,7.62
2022-09-21T23:46:12.906Z,7.59
2022-09-21T23:48:42.397Z,7.56
2022-09-21T23:51:09.326Z,7.54
2022-09-21T23:53:36.610Z,7.52
2022-09-21T23:56:04.671Z,7.52
2022-09-21T23:58:32.185Z,7.58
